createdAt,value
2022-10-22T00:03:48.155Z,98417.69
2022-10-22T00:08:53.163Z,98430.75
2022-10-22T00:13:58.083Z,98435.03
2022-10-22T00:19:05.897Z,98407.94
2022-10-22T00:24:10.958Z,98406.97
2022-10-22T00:29:18.735Z,98403.13
2022-10-22T00:34:26.740Z,98408.28
2022-10-22T00:39:32.267Z,98395.81
2022-10-22T00:45:03.613Z,98391.56
2022-10-22T00:50:14.638Z,98393.03
2022-10-22T00:55:21.400Z,98400.38
2022-10-22T01:00:26.237Z,98399.31
2022-10-22T01:05:41.373Z,98387.06
2022-10-22T01:10:56.233Z,98390.09
2022-10-22T01:16:07.528Z,98395.25
2022-10-22T01:21:21.938Z,98391.63
2022-10-22T01:26:35.012Z,98393.50
2022-10-22T01:31:47.246Z,98388.19
2022-10-22T01:36:54.508Z,98396.50
2022-10-22T01:42:00.276Z,98389.31
2022-10-22T01:47:21.130Z,98395.28
2022-10-22T01:52:38.291Z,98394.94
2022-10-22T01:57:50.096Z,98389.94
2022-10-22T02:03:02.240Z,98393.09
2022-10-22T02:08:13.057Z,98384.63
2022-10-22T02:13:21.126Z,98392.94
2022-10-22T02:18:35.354Z,98388.72
2022-10-22T02:23:43.728Z,98370.41
2022-10-22T02:28:56.277Z,98374.31
2022-10-22T02:34:09.004Z,98376.84
2022-10-22T02:44:40.704Z,98377.00
2022-10-22T02:49:48.882Z,98372.13
2022-10-22T02:54:53.887Z,98382.00
2022-10-22T02:59:58.618Z,98369.47
2022-10-22T03:05:06.094Z,98372.31
2022-10-22T03:10:12.201Z,98388.88
2022-10-22T03:15:17.132Z,98383.88
2022-10-22T03:20:24.569Z,98386.25
2022-10-22T03:25:31.212Z,98386.56
2022-10-22T03:30:36.351Z,98381.25
2022-10-22T03:35:47.187Z,98380.00
2022-10-22T03:40:52.302Z,98374.34
2022-10-22T03:45:57.067Z,98392.38
2022-10-22T03:51:04.363Z,98391.31
2022-10-22T03:56:12.029Z,98401.28
2022-10-22T04:01:17.377Z,98398.50
2022-10-22T04:06:25.729Z,98408.03
2022-10-22T04:11:30.518Z,98401.44
2022-10-22T04:16:35.624Z,98392.50
2022-10-22T04:21:43.062Z,98397.81
2022-10-22T04:26:48.095Z,98412.03
2022-10-22T04:31:52.911Z,98411.44
2022-10-22T04:37:00.391Z,98407.84
2022-10-22T04:42:05.268Z,98408.16
2022-10-22T04:47:10.514Z,98405.00
2022-10-22T04:52:18.340Z,98400.16
2022-10-22T04:57:23.922Z,98416.63
2022-10-22T05:02:28.947Z,98401.59
2022-10-22T05:07:36.334Z,98388.56
2022-10-22T05:12:41.127Z,98395.63
2022-10-22T05:17:48.334Z,98392.81
2022-10-22T05:22:55.625Z,98403.28
2022-10-22T05:28:03.737Z,98414.25
2022-10-22T05:33:08.672Z,98421.63
2022-10-22T05:38:16.237Z,98425.56
2022-10-22T05:43:20.967Z,98432.75
2022-10-22T05:48:26.031Z,98435.13
2022-10-22T05:53:34.195Z,98434.97
2022-10-22T05:58:39.835Z,98442.00
2022-10-22T06:03:48.745Z,98450.78
2022-10-22T06:08:57.562Z,98460.84
2022-10-22T06:14:02.469Z,98456.25
2022-10-22T06:19:07.856Z,98472.81
2022-10-22T06:24:16.147Z,98469.56
2022-10-22T06:29:21.093Z,98473.63
2022-10-22T06:34:25.922Z,98465.19
2022-10-22T06:39:33.543Z,98476.63
2022-10-22T06:44:38.654Z,98478.56
2022-10-22T06:49:43.509Z,98485.31
2022-10-22T06:54:50.903Z,98494.66
2022-10-22T06:59:55.685Z,98502.06
2022-10-22T07:05:00.560Z,98497.81
2022-10-22T07:10:09.147Z,98508.19
2022-10-22T07:15:14.375Z,98520.28
2022-10-22T07:20:21.001Z,98526.06
2022-10-22T07:25:28.721Z,98518.72
2022-10-22T07:30:33.443Z,98538.94
2022-10-22T07:35:40.118Z,98548.38
2022-10-22T07:40:47.546Z,98545.06
2022-10-22T07:45:53.192Z,98548.84
2022-10-22T07:50:58.397Z,98554.97
2022-10-22T07:56:06.063Z,98567.69
2022-10-22T08:01:11.259Z,98573.53
2022-10-22T08:06:17.820Z,98569.47
2022-10-22T08:11:25.436Z,98581.09
2022-10-22T08:16:30.449Z,98585.28
2022-10-22T08:21:38.335Z,98593.34
2022-10-22T08:26:45.778Z,98597.91
2022-10-22T08:31:50.645Z,98601.22
2022-10-22T08:36:55.332Z,98601.66
2022-10-22T08:42:11.478Z,98596.78
2022-10-22T08:47:30.577Z,98598.97
2022-10-22T08:52:37.529Z,98606.94
2022-10-22T08:57:53.873Z,98612.47
2022-10-22T09:03:08.837Z,98618.06
2022-10-22T09:08:15.364Z,98618.19
2022-10-22T09:13:26.059Z,98620.53
2022-10-22T09:18:40.734Z,98611.69
2022-10-22T09:24:02.061Z,98613.22
2022-10-22T09:29:10.470Z,98618.53
2022-10-22T09:34:18.261Z,98618.75
2022-10-22T09:39:29.936Z,98617.56
2022-10-22T09:44:43.677Z,98612.25
2022-10-22T09:49:51.367Z,98611.50
2022-10-22T09:54:57.481Z,98610.22
2022-10-22T10:00:04.880Z,98613.59
2022-10-22T10:05:22.219Z,98601.03
2022-10-22T10:10:39.923Z,98613.63
2022-10-22T10:15:57.319Z,98612.63
2022-10-22T10:21:10.228Z,98612.06
2022-10-22T10:26:22.287Z,98620.59
2022-10-22T10:31:41.813Z,98611.75
2022-10-22T10:36:55.485Z,98620.81
2022-10-22T10:42:08.814Z,98618.00
2022-10-22T10:47:29.424Z,98619.03
2022-10-22T10:52:41.342Z,98620.78
2022-10-22T10:57:52.432Z,98631.03
2022-10-22T11:03:23.145Z,98619.28
2022-10-22T11:08:31.550Z,98622.19
2022-10-22T11:13:41.249Z,98615.88
2022-10-22T11:18:55.806Z,98619.41
2022-10-22T11:24:14.057Z,98623.88
2022-10-22T11:29:25.637Z,98639.03
2022-10-22T11:34:40.921Z,98648.03
2022-10-22T11:39:50.234Z,98642.44
2022-10-22T11:45:05.579Z,98643.94
2022-10-22T11:50:47.182Z,98651.88
2022-10-22T11:55:55.677Z,98648.97
2022-10-22T12:01:19.902Z,98650.53
2022-10-22T12:06:28.809Z,98641.34
2022-10-22T12:11:40.140Z,98647.28
2022-10-22T12:16:56.183Z,98646.25
2022-10-22T12:22:16.784Z,98651.34
2022-10-22T12:27:24.646Z,98655.00
2022-10-22T12:32:36.400Z,98641.22
2022-10-22T12:37:44.114Z,98635.28
2022-10-22T12:42:57.798Z,98636.63
2022-10-22T12:48:04.685Z,98633.66
2022-10-22T12:53:17.868Z,98625.34
2022-10-22T12:58:27.692Z,98640.75
2022-10-22T13:03:37.822Z,98639.16
2022-10-22T13:08:45.211Z,98639.19
2022-10-22T13:13:50.140Z,98642.19
2022-10-22T13:18:56.493Z,98644.47
2022-10-22T13:24:07.856Z,98646.94
2022-10-22T13:29:15.118Z,98646.06
2022-10-22T13:34:22.546Z,98652.25
2022-10-22T13:39:29.910Z,98650.28
2022-10-22T13:44:34.878Z,98655.16
2022-10-22T13:49:43.398Z,98658.00
2022-10-22T13:54:50.914Z,98664.72
2022-10-22T13:59:55.691Z,98664.38
2022-10-22T14:05:03.343Z,98665.75
2022-10-22T14:10:17.777Z,98668.09
2022-10-22T14:15:25.159Z,98675.03
2022-10-22T14:20:35.193Z,98670.09
2022-10-22T14:25:43.102Z,98679.59
2022-10-22T14:30:48.983Z,98681.28
2022-10-22T14:35:54.457Z,98674.28
2022-10-22T14:41:03.036Z,98677.72
2022-10-22T14:46:08.346Z,98684.31
2022-10-22T14:51:16.428Z,98690.13
2022-10-22T14:56:24.115Z,98687.53
2022-10-22T15:01:28.927Z,98696.63
2022-10-22T15:06:35.978Z,98698.91
2022-10-22T15:11:43.353Z,98706.38
2022-10-22T15:16:48.215Z,98700.22
2022-10-22T15:21:53.244Z,98714.09
2022-10-22T15:27:00.828Z,98710.63
2022-10-22T15:32:05.808Z,98721.66
2022-10-22T15:37:13.215Z,98722.94
2022-10-22T15:42:21.335Z,98729.09
2022-10-22T15:47:28.581Z,98739.19
2022-10-22T15:52:34.249Z,98742.75
2022-10-22T15:57:42.401Z,98746.97
2022-10-22T16:02:47.370Z,98756.28
2022-10-22T16:07:55.797Z,98755.09
2022-10-22T16:13:03.252Z,98759.06
2022-10-22T16:18:08.237Z,98764.47
2022-10-22T16:23:14.001Z,98760.09
2022-10-22T16:28:21.744Z,98776.97
2022-10-22T16:33:26.667Z,98778.84
2022-10-22T16:38:32.036Z,98786.25
2022-10-22T16:43:39.362Z,98788.13
2022-10-22T16:48:47.848Z,98801.41
2022-10-22T16:53:54.571Z,98809.44
2022-10-22T16:59:02.619Z,98813.00
2022-10-22T17:04:07.379Z,98820.22
2022-10-22T17:09:12.458Z,98828.59
2022-10-22T17:14:20.159Z,98823.44
2022-10-22T17:19:25.607Z,98829.50
2022-10-22T17:24:30.507Z,98836.84
2022-10-22T17:29:39.518Z,98851.66
2022-10-22T17:34:44.375Z,98864.84
2022-10-22T17:39:49.539Z,98868.22
2022-10-22T17:44:56.907Z,98872.94
2022-10-22T17:50:01.881Z,98873.25
2022-10-22T17:55:07.411Z,98889.59
2022-10-22T18:05:42.852Z,98894.66
2022-10-22T18:10:49.744Z,98898.41
2022-10-22T18:16:00.120Z,98897.44
2022-10-22T18:21:05.540Z,98907.81
2022-10-22T18:26:11.044Z,98899.59
2022-10-22T18:31:20.815Z,98908.75
2022-10-22T18:36:28.160Z,98908.63
2022-10-22T18:41:34.369Z,98915.75
2022-10-22T18:46:42.007Z,98919.22
2022-10-22T18:51:48.883Z,98918.81
2022-10-22T18:57:00.468Z,98917.28
2022-10-22T19:02:09.586Z,98917.91
2022-10-22T19:07:15.595Z,98911.47
2022-10-22T19:12:21.730Z,98919.78
2022-10-22T19:17:29.086Z,98919.47
2022-10-22T19:22:34.763Z,98915.69
2022-10-22T19:27:40.301Z,98907.97
2022-10-22T19:32:48.828Z,98921.81
2022-10-22T19:37:53.973Z,98925.75
2022-10-22T19:43:01.501Z,98931.13
2022-10-22T19:48:09.374Z,98932.06
2022-10-22T19:53:15.078Z,98938.63
2022-10-22T19:58:19.912Z,98946.50
2022-10-22T20:03:27.337Z,98947.75
2022-10-22T20:08:32.205Z,98943.22
2022-10-22T20:19:08.772Z,98955.75
2022-10-22T20:24:14.546Z,98958.59
2022-10-22T20:29:21.269Z,98958.13
2022-10-22T20:34:29.868Z,98959.25
2022-10-22T20:39:34.653Z,98963.19
2022-10-22T20:44:39.559Z,98968.72
2022-10-22T20:49:46.898Z,98985.03
2022-10-22T20:54:51.851Z,98980.81
2022-10-22T20:59:57.609Z,98985.53
2022-10-22T21:05:05.050Z,98982.38
2022-10-22T21:10:11.376Z,98985.34
2022-10-22T21:15:16.415Z,98984.06
2022-10-22T21:20:24.886Z,98987.03
2022-10-22T21:25:30.534Z,98991.34
2022-10-22T21:30:35.278Z,98988.09
2022-10-22T21:35:43.066Z,98987.53
2022-10-22T21:40:47.841Z,98991.06
2022-10-22T21:45:52.824Z,98999.91
2022-10-22T21:51:00.181Z,99001.72
2022-10-22T21:56:05.453Z,99002.41
2022-10-22T22:01:10.301Z,99009.91
2022-10-22T22:06:21.260Z,99001.75
2022-10-22T22:11:29.011Z,99009.16
2022-10-22T22:16:35.872Z,99015.25
2022-10-22T22:21:44.154Z,99008.16
2022-10-22T22:26:49.101Z,99005.00
2022-10-22T22:31:53.853Z,99004.03
2022-10-22T22:37:01.232Z,98995.66
2022-10-22T22:42:06.410Z,99006.13
2022-10-22T22:47:11.604Z,98997.91
2022-10-22T22:57:23.696Z,99001.06
2022-10-22T23:02:28.498Z,99009.47
2022-10-22T23:07:35.962Z,99003.06
2022-10-22T23:12:41.135Z,99000.16
2022-10-22T23:17:46.256Z,98988.75
2022-10-22T23:22:53.526Z,98999.25
2022-10-22T23:28:00.304Z,98987.41
2022-10-22T23:33:05.112Z,98987.69
2022-10-22T23:38:12.551Z,98995.31
2022-10-22T23:43:17.355Z,98997.06
2022-10-22T23:48:22.773Z,99000.81
2022-10-22T23:53:30.165Z,99003.63
2022-10-22T23:58:35.685Z,99007.59
